createdAt,value
2022-11-29T00:01:07.846Z,8.15
2022-11-29T00:03:34.504Z,8.15
2022-11-29T00:06:09.714Z,8.13
2022-11-29T00:08:36.619Z,8.13
2022-11-29T00:11:08.094Z,8.11
2022-11-29T00:13:34.903Z,8.11
2022-11-29T00:16:04.804Z,8.12
2022-11-29T00:18:31.428Z,8.13
2022-11-29T00:20:57.813Z,8.13
2022-11-29T00:23:24.190Z,8.12
2022-11-29T00:25:50.486Z,8.13
2022-11-29T00:28:17.120Z,8.13
2022-11-29T00:30:43.472Z,8.14
2022-11-29T00:33:09.782Z,8.15
2022-11-29T00:35:38.724Z,8.16
2022-11-29T00:38:05.024Z,8.16
2022-11-29T00:40:31.423Z,8.16
2022-11-29T00:42:59.465Z,8.17
2022-11-29T00:45:30.635Z,8.18
2022-11-29T00:47:56.992Z,8.17
2022-11-29T00:50:23.420Z,8.17
2022-11-29T00:52:49.819Z,8.18
2022-11-29T00:55:17.812Z,8.18
2022-11-29T00:57:44.206Z,8.18
2022-11-29T01:00:11.011Z,8.18
2022-11-29T01:02:37.370Z,8.17
2022-11-29T01:05:03.887Z,8.18
2022-11-29T01:07:30.207Z,8.19
2022-11-29T01:09:56.538Z,8.19
2022-11-29T01:12:22.845Z,8.19
2022-11-29T01:14:49.130Z,8.18
2022-11-29T01:17:15.461Z,8.18
2022-11-29T01:19:46.439Z,8.18
2022-11-29T01:22:17.782Z,8.19
2022-11-29T01:24:46.214Z,8.17
2022-11-29T01:27:12.721Z,8.17
2022-11-29T01:29:39.151Z,8.17
2022-11-29T01:32:05.498Z,8.18
2022-11-29T01:34:31.926Z,8.17
2022-11-29T01:36:58.734Z,8.17
2022-11-29T01:39:25.108Z,8.16
2022-11-29T01:41:51.413Z,8.16
2022-11-29T01:44:17.625Z,8.15
2022-11-29T01:46:46.244Z,8.15
2022-11-29T01:49:20.866Z,8.14
2022-11-29T01:52:02.820Z,8.12
2022-11-29T01:54:30.570Z,8.14
2022-11-29T01:56:59.010Z,8.11
2022-11-29T01:59:29.266Z,8.11
2022-11-29T02:02:05.081Z,8.09
2022-11-29T02:04:36.589Z,8.07
2022-11-29T02:07:03.688Z,8.07
2022-11-29T02:09:30.089Z,8.08
2022-11-29T02:12:15.381Z,8.08
2022-11-29T02:14:50.510Z,8.09
2022-11-29T02:17:35.498Z,8.07
2022-11-29T02:20:16.929Z,8.08
2022-11-29T02:22:56.267Z,8.05
2022-11-29T02:26:03.041Z,8.07
2022-11-29T02:28:46.130Z,8.08
2022-11-29T02:31:43.551Z,8.05
2022-11-29T02:34:28.282Z,8.02
2022-11-29T02:37:16.913Z,7.99
2022-11-29T02:40:12.774Z,7.96
2022-11-29T02:42:56.560Z,7.94
2022-11-29T02:45:32.541Z,7.95
2022-11-29T02:48:44.486Z,7.94
2022-11-29T02:51:56.732Z,7.95
2022-11-29T02:55:00.537Z,7.93
2022-11-29T02:57:43.251Z,7.89
2022-11-29T03:00:15.974Z,7.88
2022-11-29T03:02:47.116Z,7.90
2022-11-29T03:05:35.261Z,7.93
2022-11-29T03:08:27.984Z,7.93
2022-11-29T03:11:13.835Z,7.91
2022-11-29T03:14:01.566Z,7.90
2022-11-29T03:16:59.566Z,7.91
2022-11-29T03:19:47.243Z,7.92
2022-11-29T03:22:20.353Z,7.90
2022-11-29T03:24:49.746Z,7.91
2022-11-29T03:27:45.279Z,7.93
2022-11-29T03:30:14.282Z,7.91
2022-11-29T03:33:08.833Z,7.90
2022-11-29T03:36:01.956Z,7.89
2022-11-29T03:38:38.434Z,7.90
2022-11-29T03:41:16.307Z,7.91
2022-11-29T03:43:57.358Z,7.92
2022-11-29T03:46:43.493Z,7.93
2022-11-29T03:49:19.018Z,7.92
2022-11-29T03:52:04.024Z,7.92
2022-11-29T03:55:06.028Z,7.86
2022-11-29T03:58:04.643Z,7.88
2022-11-29T04:01:00.299Z,7.89
2022-11-29T04:04:03.510Z,7.90
2022-11-29T04:06:45.246Z,7.88
2022-11-29T04:10:02.959Z,7.87
2022-11-29T04:13:26.732Z,7.82
2022-11-29T04:16:26.639Z,7.80
2022-11-29T04:19:34.502Z,7.78
2022-11-29T04:22:31.441Z,7.79
2022-11-29T04:25:36.729Z,7.77
2022-11-29T04:28:18.887Z,7.74
2022-11-29T04:31:04.948Z,7.72
2022-11-29T04:33:46.582Z,7.68
2022-11-29T04:36:34.389Z,7.69
2022-11-29T04:39:23.426Z,7.72
2022-11-29T04:42:02.022Z,7.71
2022-11-29T04:44:53.785Z,7.70
2022-11-29T04:47:40.270Z,7.68
2022-11-29T04:50:06.811Z,7.69
2022-11-29T04:53:11.227Z,7.68
2022-11-29T04:56:10.292Z,7.65
2022-11-29T04:58:46.071Z,7.62
2022-11-29T05:01:33.606Z,7.62
2022-11-29T05:04:19.103Z,7.61
2022-11-29T05:07:03.958Z,7.63
2022-11-29T05:10:00.383Z,7.64
2022-11-29T05:12:38.558Z,7.64
2022-11-29T05:15:40.600Z,7.64
2022-11-29T05:18:44.674Z,7.64
2022-11-29T05:21:36.863Z,7.65
2022-11-29T05:24:47.069Z,7.67
2022-11-29T05:27:39.099Z,7.67
2022-11-29T05:30:14.204Z,7.66
2022-11-29T05:33:02.127Z,7.67
2022-11-29T05:35:50.005Z,7.67
2022-11-29T05:39:01.291Z,7.68
2022-11-29T05:41:52.254Z,7.68
2022-11-29T05:44:32.417Z,7.68
2022-11-29T05:47:02.777Z,7.71
2022-11-29T05:49:49.793Z,7.70
2022-11-29T05:52:34.854Z,7.69
2022-11-29T05:55:22.658Z,7.68
2022-11-29T05:58:04.322Z,7.69
2022-11-29T06:00:43.446Z,7.71
2022-11-29T06:03:21.774Z,7.72
2022-11-29T06:05:56.566Z,7.71
2022-11-29T06:08:43.163Z,7.68
2022-11-29T06:11:17.387Z,7.69
2022-11-29T06:14:08.356Z,7.70
2022-11-29T06:17:25.785Z,7.69
2022-11-29T06:20:14.798Z,7.69
2022-11-29T06:23:02.739Z,7.69
2022-11-29T06:25:43.218Z,7.68
2022-11-29T06:28:15.552Z,7.68
2022-11-29T06:30:55.335Z,7.67
2022-11-29T06:33:31.243Z,7.65
2022-11-29T06:36:10.069Z,7.62
2022-11-29T06:38:36.858Z,7.62
2022-11-29T06:41:03.893Z,7.64
2022-11-29T06:43:32.195Z,7.64
2022-11-29T06:46:45.317Z,7.67
2022-11-29T06:49:20.697Z,7.67
2022-11-29T06:52:04.986Z,7.66
2022-11-29T06:54:50.200Z,7.65
2022-11-29T06:57:43.201Z,7.66
2022-11-29T07:00:19.243Z,7.65
2022-11-29T07:02:59.601Z,7.66
2022-11-29T07:05:35.454Z,7.67
2022-11-29T07:08:12.168Z,7.66
2022-11-29T07:10:40.526Z,7.68
2022-11-29T07:13:07.074Z,7.67
2022-11-29T07:15:34.045Z,7.68
2022-11-29T07:18:17.521Z,7.69
2022-11-29T07:21:08.538Z,7.71
2022-11-29T07:23:47.114Z,7.69
2022-11-29T07:26:43.357Z,7.70
2022-11-29T07:29:44.769Z,7.68
2022-11-29T07:32:29.467Z,7.69
2022-11-29T07:35:07.716Z,7.69
2022-11-29T07:37:57.755Z,7.69
2022-11-29T07:40:37.175Z,7.69
2022-11-29T07:43:28.368Z,7.69
2022-11-29T07:45:57.049Z,7.68
2022-11-29T07:48:23.423Z,7.69
2022-11-29T07:50:49.840Z,7.69
2022-11-29T07:53:18.432Z,7.65
2022-11-29T07:55:45.529Z,7.64
2022-11-29T07:58:13.048Z,7.64
2022-11-29T08:00:42.780Z,7.65
2022-11-29T08:03:10.590Z,7.65
2022-11-29T08:05:38.351Z,7.64
2022-11-29T08:08:05.847Z,7.63
2022-11-29T08:10:32.836Z,7.60
2022-11-29T08:13:01.689Z,7.56
2022-11-29T08:15:32.042Z,7.57
2022-11-29T08:18:00.684Z,7.52
2022-11-29T08:20:27.106Z,7.49
2022-11-29T08:22:54.884Z,7.49
2022-11-29T08:25:21.186Z,7.51
2022-11-29T08:27:47.542Z,7.53
2022-11-29T08:30:13.992Z,7.55
2022-11-29T08:32:41.472Z,7.55
2022-11-29T08:35:09.928Z,7.56
2022-11-29T08:37:37.395Z,7.56
2022-11-29T08:40:05.725Z,7.57
2022-11-29T08:42:32.060Z,7.59
2022-11-29T08:44:58.497Z,7.63
2022-11-29T08:47:36.921Z,7.65
2022-11-29T08:50:12.577Z,7.63
2022-11-29T08:53:00.698Z,7.63
2022-11-29T08:55:31.695Z,7.63
2022-11-29T09:01:23.920Z,7.64
2022-11-29T09:03:59.402Z,7.67
2022-11-29T09:06:27.832Z,7.68
2022-11-29T09:08:56.183Z,7.71
2022-11-29T09:11:24.293Z,7.72
2022-11-29T09:13:53.927Z,7.78
2022-11-29T09:16:23.598Z,7.82
2022-11-29T09:18:51.791Z,7.84
2022-11-29T09:21:18.899Z,7.87
2022-11-29T09:23:46.230Z,7.88
2022-11-29T09:26:18.789Z,7.93
2022-11-29T09:28:46.696Z,7.92
2022-11-29T09:31:15.644Z,7.95
2022-11-29T09:33:42.440Z,7.97
2022-11-29T09:36:11.009Z,8.01
2022-11-29T09:38:38.637Z,8.08
2022-11-29T09:41:28.509Z,8.09
2022-11-29T09:44:00.660Z,8.12
2022-11-29T09:46:35.791Z,8.15
2022-11-29T09:49:08.184Z,8.20
2022-11-29T09:51:44.035Z,8.24
2022-11-29T09:54:16.716Z,8.28
2022-11-29T09:56:49.890Z,8.26
2022-11-29T09:59:24.710Z,8.27
2022-11-29T10:02:03.858Z,8.18
2022-11-29T10:04:36.798Z,8.20
2022-11-29T10:07:18.621Z,8.19
2022-11-29T10:09:51.123Z,8.24
2022-11-29T10:12:31.598Z,8.25
2022-11-29T10:15:05.427Z,8.26
2022-11-29T10:17:34.957Z,8.23
2022-11-29T10:20:09.119Z,8.26
2022-11-29T10:23:02.781Z,8.30
2022-11-29T10:25:35.802Z,8.31
2022-11-29T10:28:06.169Z,8.29
2022-11-29T10:30:35.913Z,8.35
2022-11-29T10:33:02.733Z,8.41
2022-11-29T10:35:29.634Z,8.45
2022-11-29T10:38:29.725Z,8.52
2022-11-29T10:40:50.963Z,8.54
2022-11-29T10:43:17.324Z,8.53
2022-11-29T10:45:50.558Z,8.57
2022-11-29T10:48:19.864Z,8.57
2022-11-29T10:50:48.646Z,8.57
2022-11-29T10:53:18.217Z,8.59
2022-11-29T10:55:47.406Z,8.57
2022-11-29T10:58:28.267Z,8.62
2022-11-29T11:00:57.368Z,8.58
2022-11-29T11:03:52.800Z,8.66
2022-11-29T11:06:22.689Z,8.68
2022-11-29T11:08:53.462Z,8.68
2022-11-29T11:11:29.326Z,8.63
2022-11-29T11:14:00.624Z,8.67
2022-11-29T11:16:31.684Z,8.71
2022-11-29T11:19:28.048Z,8.83
2022-11-29T11:21:56.476Z,8.93
2022-11-29T11:24:35.857Z,9.03
2022-11-29T11:27:02.465Z,9.11
2022-11-29T11:29:37.601Z,9.16
2022-11-29T11:32:07.324Z,9.34
2022-11-29T11:34:36.152Z,9.31
2022-11-29T11:37:14.736Z,9.26
2022-11-29T11:39:47.063Z,9.32
2022-11-29T11:42:39.822Z,9.30
2022-11-29T11:45:09.581Z,9.19
2022-11-29T11:47:43.135Z,9.19
2022-11-29T11:50:28.330Z,9.23
2022-11-29T11:52:58.094Z,9.30
2022-11-29T11:55:32.399Z,9.35
2022-11-29T11:58:04.643Z,9.29
2022-11-29T12:01:03.892Z,9.27
2022-11-29T12:03:57.516Z,9.23
2022-11-29T12:06:38.991Z,9.23
2022-11-29T12:09:18.515Z,9.32
2022-11-29T12:12:10.003Z,9.35
2022-11-29T12:14:47.412Z,9.34
2022-11-29T12:17:29.486Z,9.33
2022-11-29T12:20:12.935Z,9.38
2022-11-29T12:22:48.689Z,9.40
2022-11-29T12:25:31.784Z,9.43
2022-11-29T12:27:58.666Z,9.39
2022-11-29T12:30:25.786Z,9.42
2022-11-29T12:33:05.517Z,9.47
2022-11-29T12:35:50.007Z,9.50
2022-11-29T12:38:38.637Z,9.53
2022-11-29T12:41:42.639Z,9.57
2022-11-29T12:44:42.273Z,9.58
2022-11-29T12:47:35.188Z,9.62
2022-11-29T12:50:01.154Z,9.60
2022-11-29T12:52:47.049Z,9.65
2022-11-29T12:55:31.864Z,9.62
2022-11-29T12:58:10.481Z,9.60
2022-11-29T13:00:46.523Z,9.60
2022-11-29T13:03:33.916Z,9.62
2022-11-29T13:06:12.587Z,9.61
2022-11-29T13:09:01.954Z,9.61
2022-11-29T13:11:39.317Z,9.63
2022-11-29T13:14:43.199Z,9.63
2022-11-29T13:17:31.667Z,9.67
2022-11-29T13:20:19.044Z,9.68
2022-11-29T13:22:52.862Z,9.69
2022-11-29T13:25:32.377Z,9.69
2022-11-29T13:28:04.373Z,9.66
2022-11-29T13:30:31.630Z,9.66
2022-11-29T13:33:16.491Z,9.67
2022-11-29T13:36:08.568Z,9.63
2022-11-29T13:38:43.393Z,9.63
2022-11-29T13:41:27.187Z,9.63
2022-11-29T13:44:09.679Z,9.63
2022-11-29T13:46:46.723Z,9.63
2022-11-29T13:49:50.866Z,9.64
2022-11-29T13:52:43.131Z,9.63
2022-11-29T13:55:12.434Z,9.63
2022-11-29T13:58:18.823Z,9.63
2022-11-29T14:00:45.419Z,9.62
2022-11-29T14:03:23.896Z,9.60
2022-11-29T14:06:09.983Z,9.61
2022-11-29T14:09:17.242Z,9.59
2022-11-29T14:11:49.095Z,9.57
2022-11-29T14:14:16.682Z,9.56
2022-11-29T14:16:42.939Z,9.54
2022-11-29T14:19:09.861Z,9.51
2022-11-29T14:22:07.130Z,9.49
2022-11-29T14:24:38.862Z,9.45
2022-11-29T14:27:14.278Z,9.40
2022-11-29T14:29:50.032Z,9.36
2022-11-29T14:32:24.499Z,9.32
2022-11-29T14:34:57.398Z,9.28
2022-11-29T14:37:32.907Z,9.21
2022-11-29T14:40:04.091Z,9.10
2022-11-29T14:42:31.300Z,9.01
2022-11-29T14:45:01.338Z,8.91
2022-11-29T14:47:32.827Z,8.82
2022-11-29T14:50:05.381Z,8.76
2022-11-29T14:52:35.785Z,8.69
2022-11-29T14:55:38.906Z,8.60
2022-11-29T14:58:16.436Z,8.52
2022-11-29T15:00:48.454Z,8.42
2022-11-29T15:03:52.541Z,8.35
2022-11-29T15:06:50.127Z,8.25
2022-11-29T15:09:24.968Z,8.15
2022-11-29T15:12:24.018Z,8.07
2022-11-29T15:15:09.821Z,8.02
2022-11-29T15:18:40.704Z,7.91
2022-11-29T15:21:33.756Z,7.76
2022-11-29T15:24:14.365Z,7.65
2022-11-29T15:27:40.188Z,7.61
2022-11-29T15:31:03.222Z,7.54
2022-11-29T15:34:25.343Z,7.42
2022-11-29T15:36:52.907Z,7.32
2022-11-29T15:39:31.549Z,7.25
2022-11-29T15:42:32.729Z,7.18
2022-11-29T15:45:18.164Z,7.15
2022-11-29T15:48:23.237Z,7.08
2022-11-29T15:51:13.072Z,7.00
2022-11-29T15:54:13.329Z,6.97
2022-11-29T15:56:47.098Z,6.98
2022-11-29T15:59:21.491Z,6.96
2022-11-29T16:01:59.259Z,6.98
2022-11-29T16:04:27.235Z,7.00
2022-11-29T16:06:58.153Z,6.97
2022-11-29T16:09:42.935Z,6.96
2022-11-29T16:12:13.984Z,6.95
2022-11-29T16:15:01.148Z,6.96
2022-11-29T16:17:32.485Z,6.97
2022-11-29T16:20:21.316Z,7.04
2022-11-29T16:23:05.185Z,7.10
2022-11-29T16:25:37.361Z,7.14
2022-11-29T16:28:06.542Z,7.20
2022-11-29T16:30:33.203Z,7.23
2022-11-29T16:33:01.054Z,7.27
2022-11-29T16:35:29.977Z,7.32
2022-11-29T16:37:56.772Z,7.36
2022-11-29T16:40:27.205Z,7.38
2022-11-29T16:43:07.011Z,7.41
2022-11-29T16:45:33.879Z,7.44
2022-11-29T16:48:01.524Z,7.46
2022-11-29T16:50:29.891Z,7.47
2022-11-29T16:53:17.613Z,7.50
2022-11-29T16:55:47.409Z,7.52
2022-11-29T16:58:13.792Z,7.52
2022-11-29T17:00:40.209Z,7.52
2022-11-29T17:03:06.520Z,7.53
2022-11-29T17:05:32.886Z,7.54
2022-11-29T17:08:00.211Z,7.56
2022-11-29T17:10:27.403Z,7.57
2022-11-29T17:12:53.753Z,7.57
2022-11-29T17:15:20.059Z,7.55
2022-11-29T17:17:46.454Z,7.54
2022-11-29T17:20:13.362Z,7.53
2022-11-29T17:22:40.136Z,7.53
2022-11-29T17:25:08.484Z,7.53
2022-11-29T17:27:35.721Z,7.54
2022-11-29T17:30:03.363Z,7.54
2022-11-29T17:32:30.025Z,7.55
2022-11-29T17:34:56.355Z,7.54
2022-11-29T17:37:22.690Z,7.55
2022-11-29T17:39:49.209Z,7.56
2022-11-29T17:42:15.612Z,7.56
2022-11-29T17:44:42.534Z,7.57
2022-11-29T17:47:10.502Z,7.59
2022-11-29T17:49:37.134Z,7.59
2022-11-29T17:52:03.439Z,7.60
2022-11-29T17:54:33.076Z,7.60
2022-11-29T17:57:00.669Z,7.60
2022-11-29T17:59:27.116Z,7.60
2022-11-29T18:01:53.512Z,7.61
2022-11-29T18:04:19.899Z,7.62
2022-11-29T18:06:49.709Z,7.62
2022-11-29T18:09:17.754Z,7.63
2022-11-29T18:11:48.660Z,7.63
2022-11-29T18:14:20.552Z,7.63
2022-11-29T18:16:47.089Z,7.64
2022-11-29T18:19:17.036Z,7.65
2022-11-29T18:21:45.681Z,7.66
2022-11-29T18:24:15.135Z,7.66
2022-11-29T18:26:43.053Z,7.68
2022-11-29T18:29:09.656Z,7.68
2022-11-29T18:31:41.530Z,7.66
2022-11-29T18:34:09.983Z,7.69
2022-11-29T18:36:44.912Z,7.69
2022-11-29T18:39:23.450Z,7.68
2022-11-29T18:41:50.371Z,7.69
2022-11-29T18:44:22.503Z,7.71
2022-11-29T18:46:50.618Z,7.70
2022-11-29T18:49:21.367Z,7.68
2022-11-29T18:51:49.485Z,7.67
2022-11-29T18:54:17.976Z,7.69
2022-11-29T18:56:45.530Z,7.69
2022-11-29T18:59:16.457Z,7.68
2022-11-29T19:01:45.044Z,7.68
2022-11-29T19:04:14.632Z,7.70
2022-11-29T19:06:41.918Z,7.67
2022-11-29T19:09:13.196Z,7.67
2022-11-29T19:11:39.855Z,7.68
2022-11-29T19:14:12.544Z,7.69
2022-11-29T19:16:42.069Z,7.69
2022-11-29T19:19:08.759Z,7.70
2022-11-29T19:21:35.485Z,7.69
2022-11-29T19:24:04.181Z,7.69
2022-11-29T19:26:32.401Z,7.71
2022-11-29T19:29:00.736Z,7.71
2022-11-29T19:31:27.927Z,7.72
2022-11-29T19:33:55.025Z,7.73
2022-11-29T19:36:24.142Z,7.73
2022-11-29T19:38:54.517Z,7.72
2022-11-29T19:41:30.163Z,7.72
2022-11-29T19:43:58.765Z,7.72
2022-11-29T19:46:27.956Z,7.73
2022-11-29T19:48:56.379Z,7.73
2022-11-29T19:51:24.375Z,7.73
2022-11-29T19:53:55.503Z,7.71
2022-11-29T19:56:24.501Z,7.71
2022-11-29T19:58:51.701Z,7.72
2022-11-29T20:01:24.797Z,7.73
2022-11-29T20:03:52.396Z,7.73
2022-11-29T20:06:19.310Z,7.72
2022-11-29T20:08:46.385Z,7.72
2022-11-29T20:11:22.314Z,7.72
2022-11-29T20:13:59.347Z,7.71
2022-11-29T20:16:26.797Z,7.72
2022-11-29T20:18:54.052Z,7.72
2022-11-29T20:21:27.008Z,7.71
2022-11-29T20:24:01.912Z,7.72
2022-11-29T20:26:29.835Z,7.72
2022-11-29T20:28:56.181Z,7.72
2022-11-29T20:31:23.422Z,7.73
2022-11-29T20:33:52.384Z,7.72
2022-11-29T20:36:39.838Z,7.73
2022-11-29T20:39:42.738Z,7.73
2022-11-29T20:42:29.421Z,7.74
2022-11-29T20:45:06.678Z,7.73
2022-11-29T20:47:38.830Z,7.72
2022-11-29T20:50:05.802Z,7.73
2022-11-29T20:52:45.156Z,7.72
2022-11-29T20:55:11.957Z,7.74
2022-11-29T20:57:38.422Z,7.74
2022-11-29T21:00:08.695Z,7.75
2022-11-29T21:02:35.522Z,7.76
2022-11-29T21:05:02.012Z,7.74
2022-11-29T21:07:29.176Z,7.75
2022-11-29T21:10:00.917Z,7.74
2022-11-29T21:12:29.072Z,7.75
2022-11-29T21:14:55.778Z,7.76
2022-11-29T21:17:22.470Z,7.76
2022-11-29T21:19:49.101Z,7.76
2022-11-29T21:22:37.133Z,7.77
2022-11-29T21:25:22.278Z,7.77
2022-11-29T21:27:49.152Z,7.78
2022-11-29T21:30:22.206Z,7.79
2022-11-29T21:32:49.186Z,7.79
2022-11-29T21:35:16.633Z,7.78
2022-11-29T21:37:44.127Z,7.78
2022-11-29T21:40:12.147Z,7.79
2022-11-29T21:42:38.472Z,7.79
2022-11-29T21:45:09.310Z,7.81
2022-11-29T21:47:41.102Z,7.80
2022-11-29T21:50:08.568Z,7.80
2022-11-29T21:52:34.874Z,7.80
2022-11-29T21:55:01.217Z,7.81
2022-11-29T21:57:29.075Z,7.82
2022-11-29T21:59:55.482Z,7.82
2022-11-29T22:02:21.937Z,7.82
2022-11-29T22:04:48.679Z,7.83
2022-11-29T22:07:15.227Z,7.82
2022-11-29T22:09:41.702Z,7.81
2022-11-29T22:12:31.978Z,7.83
2022-11-29T22:14:54.359Z,7.83
2022-11-29T22:17:20.803Z,7.84
2022-11-29T22:19:47.214Z,7.85
2022-11-29T22:22:13.555Z,7.86
2022-11-29T22:24:39.909Z,7.87
2022-11-29T22:27:06.281Z,7.89
2022-11-29T22:29:32.680Z,7.89
2022-11-29T22:31:59.484Z,7.89
2022-11-29T22:34:27.430Z,7.89
2022-11-29T22:36:54.284Z,7.89
2022-11-29T22:39:20.895Z,7.90
2022-11-29T22:41:53.704Z,7.89
2022-11-29T22:44:20.909Z,7.89
2022-11-29T22:46:47.348Z,7.89
2022-11-29T22:49:13.700Z,7.89
2022-11-29T22:51:40.302Z,7.89
2022-11-29T22:54:09.403Z,7.88
2022-11-29T22:56:41.493Z,7.89
2022-11-29T22:59:08.735Z,7.88
2022-11-29T23:01:41.257Z,7.88
2022-11-29T23:04:09.584Z,7.87
2022-11-29T23:06:38.818Z,7.87
2022-11-29T23:09:15.048Z,7.87
2022-11-29T23:11:43.272Z,7.87
2022-11-29T23:14:09.768Z,7.87
2022-11-29T23:16:37.948Z,7.85
2022-11-29T23:19:04.492Z,7.85
2022-11-29T23:21:35.004Z,7.84
2022-11-29T23:24:01.888Z,7.83
2022-11-29T23:26:29.431Z,7.82
2022-11-29T23:28:56.623Z,7.82
2022-11-29T23:31:23.638Z,7.82
2022-11-29T23:33:50.221Z,7.83
2022-11-29T23:36:16.738Z,7.82
2022-11-29T23:38:43.723Z,7.82
2022-11-29T23:41:11.445Z,7.79
2022-11-29T23:43:40.296Z,7.77
2022-11-29T23:46:09.028Z,7.79
2022-11-29T23:48:35.354Z,7.79
2022-11-29T23:51:01.770Z,7.77
2022-11-29T23:53:28.261Z,7.76
2022-11-29T23:56:02.514Z,7.76
2022-11-29T23:58:30.040Z,7.77
